Vejret Aalborg Lufthavn

Line

METAR for:EKYT (Aalborg Arpt, NO, DK)
Text:EKYT 251320Z AUTO 12014KT 9999 BKN220/// 09/M01 Q1004
Conditions at:1320 UTC 25 Apr 2024
Temperature: 9.0°C ( 48°F)
Dewpoint: -1.0°C ( 30°F) [RH = 49%]
Pressure (altimeter):29.65 inches Hg (1004.0 mb)
Winds:from the ESE (120 degrees) at 16 MPH (14 knots; 7.2 m/s)
Visibility:6 or more sm (10+ km)
Ceiling:22000 feet AGL
Clouds:broken clouds at 22000 feet AGL
TAF for:EKYT (Aalborg Arpt, NO, DK) issued at 1109 UTC 25 Apr 2024
Text:TAF EKYT 251109Z 2512/2612 12008KT 9999 SCT025 BKN050
Forecast period:1200 UTC 25 April 2024 to 1200 UTC 26 April 2024
Forecast type:FROM: standard forecast or significant change
Winds:from the ESE (120 degrees) at 9 MPH (8 knots; 4.1 m/s)
Visibility:6 or more sm (10+ km)
Ceiling:5000 feet AGL
Clouds:scattered clouds at 2500 feet AGL, broken clouds at 5000 feet AGL
Text:TEMPO 2516/2524 5000 SHRA SCT020CB
Forecast period:1600 UTC 25 April 2024 to 0000 UTC 26 April 2024
Forecast type:TEMPORARY: The following changes expected for less than half the time period
Visibility:3 sm (5 km)
Ceiling:at least 12,000 feet AGL
Clouds:scattered clouds at 2000 feet AGL
Weather:SHRA (rain showers)

Line

Top